Time;durP1;ratioP1;P1;durP2;ratioP2;P2;SDS_P1;SDS_P2;PMS_P1;PMS_P2;Temp;Humidity;BMP_temperature;BMP_pressure;BME280_temperature;BME280_humidity;BME280_pressure;Samples;Min_cycle;Max_cycle;Signal;HPM_P1;HPM_P2
2022/08/11 00:02:13;;;;;;;;;;;24.50;47.80;;;;;;4967541;28;19940;-84
2022/08/11 00:04:38;;;;;;;;;;;24.30;48.30;;;;;;4967253;28;20395;-85
2022/08/11 00:07:05;;;;;;;;;;;24.50;47.70;;;;;;4967190;28;20561;-85
2022/08/11 00:09:32;;;;;;;;;;;24.40;47.70;;;;;;4950031;28;19910;-85
2022/08/11 00:11:58;;;;;;;;;;;24.30;48.10;;;;;;4967665;28;20020;-84
2022/08/11 00:14:25;;;;;;;;;;;24.30;48.20;;;;;;4967415;28;20087;-84
2022/08/11 00:16:56;;;;;;;;;;;24.20;48.30;;;;;;4967215;28;19945;-84
2022/08/11 00:19:24;;;;;;;;;;;24.10;48.50;;;;;;4967378;28;20012;-84
2022/08/11 00:21:50;;;;;;;;;;;24.00;49.00;;;;;;4966762;28;20533;-84
2022/08/11 00:24:16;;;;;;;;;;;24.00;48.70;;;;;;4967416;28;19910;-84
2022/08/11 00:26:46;;;;;;;;;;;24.00;48.80;;;;;;4949085;28;19936;-84
2022/08/11 00:29:11;;;;;;;;;;;23.90;49.10;;;;;;4967171;28;19988;-84
2022/08/11 00:31:37;;;;;;;;;;;23.90;49.00;;;;;;4949461;28;19910;-84
2022/08/11 00:34:08;;;;;;;;;;;23.90;49.10;;;;;;4967346;28;19910;-85
2022/08/11 00:36:55;;;;;;;;;;;23.80;49.20;;;;;;4966777;28;20000;-84
2022/08/11 00:39:21;;;;;;;;;;;23.80;49.30;;;;;;4967108;28;19918;-85
2022/08/11 00:42:05;;;;;;;;;;;23.80;49.30;;;;;;4966966;28;19957;-84
2022/08/11 00:44:50;;;;;;;;;;;23.80;49.40;;;;;;4967266;28;19914;-84
2022/08/11 00:47:26;;;;;;;;;;;23.80;49.50;;;;;;4966944;28;19960;-85
2022/08/11 00:50:04;;;;;;;;;;;23.70;49.50;;;;;;4966445;28;19938;-85
2022/08/11 00:52:32;;;;;;;;;;;23.70;49.50;;;;;;4953394;28;20446;-84
2022/08/11 00:55:15;;;;;;;;;;;23.50;50.10;;;;;;4966847;28;19918;-84
2022/08/11 00:57:41;;;;;;;;;;;23.40;50.10;;;;;;4953815;28;19918;-84
2022/08/11 01:00:13;;;;;;;;;;;23.40;50.30;;;;;;4949009;28;19914;-84
2022/08/11 01:02:44;;;;;;;;;;;23.30;50.50;;;;;;4966153;28;19914;-85
2022/08/11 01:05:28;;;;;;;;;;;23.40;50.30;;;;;;4966422;28;19961;-85
2022/08/11 01:08:12;;;;;;;;;;;23.30;50.40;;;;;;4966329;28;19909;-84
2022/08/11 01:10:47;;;;;;;;;;;23.30;50.40;;;;;;4966475;28;20056;-84
2022/08/11 01:13:31;;;;;;;;;;;23.20;50.60;;;;;;4965926;28;19910;-84
2022/08/11 01:16:06;;;;;;;;;;;23.10;50.90;;;;;;4966237;28;19906;-84
2022/08/11 01:18:50;;;;;;;;;;;23.20;50.50;;;;;;4952937;28;19961;-84
2022/08/11 01:21:24;;;;;;;;;;;23.20;50.70;;;;;;4966427;28;19910;-84
2022/08/11 01:23:53;;;;;;;;;;;23.10;50.80;;;;;;4948190;28;19910;-83
2022/08/11 01:26:24;;;;;;;;;;;23.10;51.00;;;;;;4948631;28;19914;-84
2022/08/11 01:29:08;;;;;;;;;;;23.10;51.00;;;;;;4966401;28;19916;-84
2022/08/11 01:31:43;;;;;;;;;;;23.10;50.70;;;;;;4966104;28;19945;-85
2022/08/11 01:34:20;;;;;;;;;;;23.10;50.70;;;;;;4965218;28;19921;-85
2022/08/11 01:37:01;;;;;;;;;;;23.20;50.70;;;;;;4965745;28;19917;-84
2022/08/11 01:39:32;;;;;;;;;;;23.20;50.70;;;;;;4965716;28;20598;-84
2022/08/11 01:45:20;;;;;;;;;;;23.10;50.90;;;;;;4940749;29;19914;-85
2022/08/11 01:47:59;;;;;;;;;;;22.90;51.40;;;;;;4927562;29;19910;-84
2022/08/11 01:50:45;;;;;;;;;;;22.90;51.60;;;;;;4943582;29;19910;-85
2022/08/11 01:53:26;;;;;;;;;;;22.80;52.10;;;;;;4943164;29;19949;-84
2022/08/11 01:55:57;;;;;;;;;;;22.80;52.00;;;;;;4943581;28;19954;-85
2022/08/11 01:58:41;;;;;;;;;;;22.60;52.30;;;;;;4943767;29;20060;-84
2022/08/11 02:01:19;;;;;;;;;;;22.60;52.30;;;;;;4930754;29;20624;-84
2022/08/11 02:03:44;;;;;;;;;;;22.60;52.70;;;;;;4943353;28;19911;-84
2022/08/11 02:09:11;;;;;;;;;;;22.50;52.60;;;;;;4944356;29;19960;-84
2022/08/11 02:11:37;;;;;;;;;;;22.40;53.00;;;;;;4936776;29;20343;-84
2022/08/11 02:14:02;;;;;;;;;;;22.30;53.20;;;;;;4943595;29;19910;-84
2022/08/11 02:16:48;;;;;;;;;;;22.30;53.20;;;;;;4943207;29;19910;-85
2022/08/11 02:25:01;;;;;;;;;;;22.40;53.20;;;;;;4946249;29;19984;-84
2022/08/11 02:27:35;;;;;;;;;;;22.30;53.50;;;;;;4944115;28;19910;-85
2022/08/11 02:30:07;;;;;;;;;;;22.20;54.00;;;;;;4945628;29;19996;-85
2022/08/11 02:35:41;;;;;;;;;;;22.10;53.90;;;;;;4939068;29;19996;-84
2022/08/11 02:38:12;;;;;;;;;;;22.10;54.00;;;;;;4933019;29;19997;-85
2022/08/11 02:40:38;;;;;;;;;;;22.10;54.10;;;;;;4946303;29;20013;-84
2022/08/11 02:43:16;;;;;;;;;;;22.00;54.20;;;;;;4944176;29;20010;-85
2022/08/11 02:45:48;;;;;;;;;;;22.00;54.30;;;;;;4945641;28;19997;-85
2022/08/11 02:51:26;;;;;;;;;;;21.90;54.60;;;;;;4946520;29;20026;-85
2022/08/11 02:54:00;;;;;;;;;;;21.90;54.50;;;;;;4946062;28;19910;-85
2022/08/11 02:56:45;;;;;;;;;;;21.70;55.00;;;;;;4944458;29;19966;-84
2022/08/11 03:02:12;;;;;;;;;;;21.60;55.20;;;;;;4945318;29;19922;-85
2022/08/11 03:04:56;;;;;;;;;;;21.70;55.20;;;;;;4944379;29;19910;-84
2022/08/11 03:07:30;;;;;;;;;;;21.70;55.10;;;;;;4934387;29;19992;-84
2022/08/11 03:10:04;;;;;;;;;;;21.60;55.00;;;;;;4945531;28;20393;-84
2022/08/11 03:18:41;;;;;;;;;;;21.60;55.10;;;;;;4845491;29;19927;-84
2022/08/11 03:21:10;;;;;;;;;;;21.60;55.30;;;;;;4833226;29;19912;-84
2022/08/11 03:23:43;;;;;;;;;;;21.60;55.40;;;;;;4848928;29;19912;-84
2022/08/11 03:26:28;;;;;;;;;;;21.60;55.50;;;;;;4849015;29;19915;-84
2022/08/11 03:29:00;;;;;;;;;;;21.60;55.50;;;;;;4848253;29;19915;-84
2022/08/11 03:31:46;;;;;;;;;;;21.50;55.50;;;;;;4848814;29;19908;-85
2022/08/11 03:34:17;;;;;;;;;;;21.50;55.70;;;;;;4793799;29;19919;-84
2022/08/11 03:37:01;;;;;;;;;;;21.50;55.70;;;;;;4793803;29;19944;-84
2022/08/11 03:39:44;;;;;;;;;;;21.50;55.90;;;;;;4793979;29;20039;-84
2022/08/11 03:42:28;;;;;;;;;;;21.40;56.20;;;;;;4793815;29;19973;-84
2022/08/11 03:45:04;;;;;;;;;;;21.40;56.30;;;;;;4793865;29;19921;-84
2022/08/11 03:47:39;;;;;;;;;;;21.30;56.60;;;;;;4794670;29;19914;-84
2022/08/11 03:50:07;;;;;;;;;;;21.20;56.80;;;;;;4805013;29;20015;-84
2022/08/11 03:52:55;;;;;;;;;;;21.20;57.10;;;;;;4833588;29;20374;-85
2022/08/11 03:55:27;;;;;;;;;;;21.20;57.00;;;;;;4837163;29;20469;-84
2022/08/11 03:58:11;;;;;;;;;;;21.20;57.10;;;;;;4851061;29;19912;-83
2022/08/11 04:00:49;;;;;;;;;;;21.10;57.40;;;;;;4851741;29;20433;-85
2022/08/11 04:03:47;;;;;;;;;;;21.10;57.30;;;;;;4851557;29;20393;-84
2022/08/11 04:06:12;;;;;;;;;;;21.00;57.50;;;;;;4833177;29;20399;-84
2022/08/11 04:08:56;;;;;;;;;;;21.00;57.80;;;;;;4833091;29;19912;-84
2022/08/11 04:11:37;;;;;;;;;;;20.90;58.00;;;;;;4860573;29;19994;-84
2022/08/11 04:17:18;;;;;;;;;;;20.80;58.30;;;;;;4888703;29;19939;-84
2022/08/11 04:19:44;;;;;;;;;;;20.80;58.30;;;;;;4888207;29;19935;-83
2022/08/11 04:22:24;;;;;;;;;;;20.70;58.60;;;;;;4888208;29;19919;-85
2022/08/11 04:25:08;;;;;;;;;;;20.70;58.90;;;;;;4872459;29;19915;-84
2022/08/11 04:27:34;;;;;;;;;;;20.60;59.20;;;;;;4872412;29;20321;-84
2022/08/11 04:30:06;;;;;;;;;;;20.60;59.10;;;;;;4888555;29;19919;-84
2022/08/11 04:32:34;;;;;;;;;;;20.50;59.40;;;;;;4888356;29;20412;-84
2022/08/11 04:35:09;;;;;;;;;;;20.50;59.40;;;;;;4888244;29;19922;-84
2022/08/11 04:37:34;;;;;;;;;;;20.30;59.80;;;;;;4887996;29;20875;-84
2022/08/11 04:40:26;;;;;;;;;;;20.30;60.20;;;;;;4872713;29;19966;-84
2022/08/11 04:45:54;;;;;;;;;;;20.30;60.40;;;;;;4967903;28;20037;-83
2022/08/11 05:02:57;;;;;;;;;;;20.10;60.90;;;;;;4925804;29;19917;-84
2022/08/11 05:05:32;;;;;;;;;;;20.30;60.60;;;;;;4909378;29;19965;-83
2022/08/11 05:08:13;;;;;;;;;;;20.80;59.30;;;;;;4908945;29;20289;-84
2022/08/11 05:10:47;;;;;;;;;;;21.10;58.50;;;;;;4921139;29;20110;-84
2022/08/11 05:35:42;;;;;;;;;;;23.20;54.80;;;;;;4966148;28;19940;-84
2022/08/11 05:57:30;;;;;;;;;;;24.60;52.20;;;;;;4965978;28;19964;-84
2022/08/11 05:59:59;;;;;;;;;;;25.10;51.30;;;;;;4965846;28;19972;-84
2022/08/11 06:02:25;;;;;;;;;;;25.10;51.20;;;;;;4965398;28;19910;-84
2022/08/11 06:04:56;;;;;;;;;;;25.60;51.00;;;;;;4965160;28;20505;-84
2022/08/11 06:07:26;;;;;;;;;;;26.00;50.20;;;;;;4965545;28;20359;-85
2022/08/11 06:09:51;;;;;;;;;;;25.80;50.60;;;;;;4964795;28;19910;-84
2022/08/11 06:12:21;;;;;;;;;;;26.40;49.80;;;;;;4965541;28;19936;-85
2022/08/11 06:14:49;;;;;;;;;;;26.50;49.20;;;;;;4965617;28;19910;-84
2022/08/11 06:17:21;;;;;;;;;;;26.50;49.30;;;;;;4947963;28;19981;-84
2022/08/11 06:19:47;;;;;;;;;;;26.80;49.00;;;;;;4947760;28;19973;-84
2022/08/11 06:22:19;;;;;;;;;;;27.30;48.40;;;;;;4965004;28;19917;-85
2022/08/11 06:24:50;;;;;;;;;;;27.20;48.60;;;;;;4965530;28;19910;-85
2022/08/11 06:27:25;;;;;;;;;;;27.60;48.50;;;;;;4947912;28;20017;-84
2022/08/11 06:29:51;;;;;;;;;;;28.30;47.50;;;;;;4965648;28;19910;-85
2022/08/11 06:32:17;;;;;;;;;;;28.00;47.30;;;;;;4965208;28;19910;-85
2022/08/11 06:34:54;;;;;;;;;;;27.90;47.80;;;;;;4947724;28;20489;-85
2022/08/11 06:37:39;;;;;;;;;;;28.30;47.40;;;;;;4964741;28;20000;-84
2022/08/11 06:40:10;;;;;;;;;;;28.30;47.10;;;;;;4965260;28;20367;-86
2022/08/11 06:42:36;;;;;;;;;;;28.50;47.30;;;;;;4965173;28;19910;-85
2022/08/11 06:45:15;;;;;;;;;;;28.90;46.80;;;;;;4965500;28;19965;-85
2022/08/11 06:47:44;;;;;;;;;;;28.90;47.10;;;;;;4965223;28;19910;-85
2022/08/11 06:52:54;;;;;;;;;;;30.10;45.90;;;;;;4964831;28;19933;-85
2022/08/11 07:00:59;;;;;;;;;;;30.60;45.30;;;;;;4965324;28;20374;-85
2022/08/11 07:03:27;;;;;;;;;;;30.90;44.40;;;;;;4964860;28;20395;-85
2022/08/11 07:05:57;;;;;;;;;;;31.00;44.60;;;;;;4964481;28;19910;-86
2022/08/11 07:17:05;;;;;;;;;;;31.30;44.50;;;;;;4965271;28;20484;-85
2022/08/11 07:30:40;;;;;;;;;;;32.80;42.60;;;;;;4968406;28;19921;-86
2022/08/11 07:33:07;;;;;;;;;;;32.70;42.80;;;;;;4968280;28;19918;-85
2022/08/11 07:35:34;;;;;;;;;;;33.00;42.70;;;;;;4950023;28;19910;-85
2022/08/11 07:38:08;;;;;;;;;;;32.90;42.50;;;;;;4967693;28;19941;-85
2022/08/11 07:40:34;;;;;;;;;;;32.80;42.90;;;;;;4968018;28;19914;-85
2022/08/11 07:43:00;;;;;;;;;;;32.80;42.70;;;;;;4967957;28;20295;-85
2022/08/11 07:53:40;;;;;;;;;;;33.50;42.50;;;;;;4968096;28;19953;-85
2022/08/11 07:56:06;;;;;;;;;;;33.50;42.10;;;;;;4960088;28;20482;-85
2022/08/11 08:17:56;;;;;;;;;;;36.50;40.10;;;;;;4967786;28;19917;-85
2022/08/11 08:20:24;;;;;;;;;;;36.80;39.90;;;;;;4967511;28;19945;-86
2022/08/11 08:22:55;;;;;;;;;;;37.60;39.00;;;;;;4967530;28;20339;-86
2022/08/11 08:25:29;;;;;;;;;;;38.20;38.80;;;;;;4967419;28;20021;-86
2022/08/11 08:27:55;;;;;;;;;;;38.70;38.60;;;;;;4967661;28;19968;-86
2022/08/11 08:33:05;;;;;;;;;;;39.20;37.50;;;;;;4966804;28;19917;-86
2022/08/11 08:35:31;;;;;;;;;;;39.80;37.60;;;;;;4965768;28;20192;-87
2022/08/11 08:37:58;;;;;;;;;;;39.40;37.20;;;;;;4967339;28;19957;-86
2022/08/11 08:40:24;;;;;;;;;;;38.90;37.70;;;;;;4967387;28;19913;-87
2022/08/11 08:42:54;;;;;;;;;;;38.90;37.70;;;;;;4965757;28;20302;-87
2022/08/11 08:45:20;;;;;;;;;;;39.40;37.90;;;;;;4967265;28;19921;-86
2022/08/11 08:47:50;;;;;;;;;;;39.30;37.30;;;;;;4966621;28;19944;-86
2022/08/11 08:50:20;;;;;;;;;;;39.00;37.50;;;;;;4966922;28;19945;-87
2022/08/11 08:52:49;;;;;;;;;;;39.70;37.00;;;;;;4967078;28;19940;-86
2022/08/11 08:55:17;;;;;;;;;;;40.20;37.40;;;;;;4967079;28;19922;-86
2022/08/11 08:57:43;;;;;;;;;;;40.20;37.20;;;;;;4966524;28;20379;-86
2022/08/11 09:00:09;;;;;;;;;;;40.20;37.50;;;;;;4966642;28;19918;-86
2022/08/11 09:02:35;;;;;;;;;;;40.10;37.90;;;;;;4966252;28;19917;-86
2022/08/11 09:05:04;;;;;;;;;;;40.10;38.00;;;;;;4948925;28;20598;-86
2022/08/11 09:07:30;;;;;;;;;;;40.70;37.80;;;;;;4948971;28;19921;-87
2022/08/11 09:09:56;;;;;;;;;;;40.30;37.10;;;;;;4966332;28;20435;-86
2022/08/11 09:12:25;;;;;;;;;;;40.40;37.40;;;;;;4966347;28;20016;-87
2022/08/11 09:15:02;;;;;;;;;;;41.90;37.00;;;;;;4966057;28;20390;-87
2022/08/11 09:17:29;;;;;;;;;;;41.60;36.20;;;;;;4966090;28;20297;-86
2022/08/11 09:19:59;;;;;;;;;;;41.40;36.90;;;;;;4966422;28;19922;-86
2022/08/11 09:27:55;;;;;;;;;;;41.80;36.40;;;;;;4966453;28;19941;-86
2022/08/11 09:30:24;;;;;;;;;;;42.50;36.10;;;;;;4948353;28;19949;-86
2022/08/11 09:32:55;;;;;;;;;;;43.10;36.30;;;;;;4965714;28;19914;-86
2022/08/11 09:35:20;;;;;;;;;;;42.90;35.80;;;;;;4966142;28;19990;-87
2022/08/11 09:40:38;;;;;;;;;;;42.00;36.80;;;;;;4920038;29;19946;-86
2022/08/11 09:45:53;;;;;;;;;;;41.60;37.10;;;;;;4924284;29;19950;-86
2022/08/11 09:48:20;;;;;;;;;;;43.20;36.10;;;;;;4924195;29;19915;-86
2022/08/11 09:50:50;;;;;;;;;;;43.70;36.20;;;;;;4907972;29;19910;-86
2022/08/11 09:53:16;;;;;;;;;;;42.70;36.10;;;;;;4924484;29;19911;-87
2022/08/11 09:55:46;;;;;;;;;;;42.20;36.30;;;;;;4908350;29;19922;-86
2022/08/11 09:58:12;;;;;;;;;;;42.70;36.40;;;;;;4924398;29;19911;-86
2022/08/11 10:00:41;;;;;;;;;;;43.50;36.40;;;;;;4924256;29;19925;-87
2022/08/11 10:03:10;;;;;;;;;;;43.70;36.10;;;;;;4923969;29;19915;-86
2022/08/11 10:08:25;;;;;;;;;;;42.70;36.60;;;;;;4923945;29;20006;-86
2022/08/11 10:10:52;;;;;;;;;;;43.40;36.70;;;;;;4918486;29;19967;-87
2022/08/11 10:13:20;;;;;;;;;;;43.20;36.30;;;;;;4921938;29;19966;-85
2022/08/11 10:15:46;;;;;;;;;;;43.30;36.20;;;;;;4923669;29;19966;-86
2022/08/11 10:18:41;;;;;;;;;;;43.30;36.40;;;;;;4943662;28;20470;-87
2022/08/11 10:21:21;;;;;;;;;;;43.30;37.10;;;;;;4965520;28;19933;-86
2022/08/11 10:34:45;;;;;;;;;;;38.90;39.20;;;;;;4965558;28;20370;-87
2022/08/11 10:37:11;;;;;;;;;;;38.60;39.60;;;;;;4965569;28;19914;-85
2022/08/11 10:39:38;;;;;;;;;;;37.80;40.30;;;;;;4965404;28;19972;-87
2022/08/11 10:44:52;;;;;;;;;;;37.30;41.00;;;;;;4965466;28;20291;-86
2022/08/11 10:47:33;;;;;;;;;;;37.30;41.20;;;;;;4965636;28;19949;-87
2022/08/11 11:01:01;;;;;;;;;;;36.70;40.80;;;;;;4969355;28;20505;-86
2022/08/11 11:03:28;;;;;;;;;;;36.70;40.80;;;;;;4968839;28;19917;-86
2022/08/11 11:06:00;;;;;;;;;;;36.40;40.20;;;;;;4968809;28;20401;-86
2022/08/11 11:11:15;;;;;;;;;;;35.90;40.90;;;;;;4969494;28;19917;-86
2022/08/11 11:19:19;;;;;;;;;;;36.10;41.30;;;;;;4969007;28;20056;-86
2022/08/11 11:21:46;;;;;;;;;;;35.80;40.40;;;;;;4968731;28;19910;-87
2022/08/11 11:24:40;;;;;;;;;;;36.00;41.30;;;;;;4968389;28;19917;-86
2022/08/11 11:27:29;;;;;;;;;;;36.00;41.80;;;;;;4967533;28;19910;-86
2022/08/11 11:30:09;;;;;;;;;;;36.00;38.90;;;;;;4968416;28;19910;-86
2022/08/11 11:32:34;;;;;;;;;;;35.90;38.10;;;;;;4968524;28;19910;-86
2022/08/11 11:35:16;;;;;;;;;;;35.90;38.30;;;;;;4972065;28;19925;-86
2022/08/11 11:37:44;;;;;;;;;;;35.90;38.30;;;;;;4950505;28;20374;-85
2022/08/11 11:40:11;;;;;;;;;;;35.50;38.90;;;;;;4968058;28;19929;-86
2022/08/11 11:42:38;;;;;;;;;;;35.60;38.90;;;;;;4950076;28;20346;-87
2022/08/11 11:45:05;;;;;;;;;;;35.40;39.00;;;;;;4968227;28;19910;-88
2022/08/11 11:47:31;;;;;;;;;;;35.00;39.10;;;;;;4967792;28;19941;-86
2022/08/11 11:49:57;;;;;;;;;;;35.10;39.00;;;;;;4975706;28;19909;-86
2022/08/11 11:52:23;;;;;;;;;;;35.10;40.20;;;;;;4973865;28;20378;-86
2022/08/11 11:54:50;;;;;;;;;;;35.10;39.90;;;;;;4967793;28;19914;-86
2022/08/11 12:02:50;;;;;;;;;;;34.80;39.10;;;;;;4967915;28;19989;-87
2022/08/11 12:05:16;;;;;;;;;;;34.90;38.70;;;;;;4967627;28;19916;-85
2022/08/11 12:10:26;;;;;;;;;;;35.30;39.60;;;;;;4967658;28;19917;-87
2022/08/11 12:15:36;;;;;;;;;;;35.40;41.60;;;;;;4967701;28;20283;-87
2022/08/11 12:18:02;;;;;;;;;;;35.30;39.50;;;;;;4966772;28;19910;-87
2022/08/11 12:20:28;;;;;;;;;;;35.10;39.90;;;;;;4967095;28;19914;-86
2022/08/11 12:28:23;;;;;;;;;;;35.10;39.60;;;;;;4966841;28;20295;-86
2022/08/11 12:30:52;;;;;;;;;;;35.10;39.00;;;;;;4967022;28;19910;-86
2022/08/11 12:33:18;;;;;;;;;;;35.00;39.20;;;;;;4966930;28;19916;-86
2022/08/11 12:35:44;;;;;;;;;;;35.10;38.30;;;;;;4967007;28;20306;-86
2022/08/11 12:38:10;;;;;;;;;;;35.50;39.90;;;;;;4966701;28;19914;-86
2022/08/11 12:46:20;;;;;;;;;;;35.20;38.90;;;;;;4925271;29;19957;-86
2022/08/11 12:54:25;;;;;;;;;;;35.50;38.40;;;;;;4925049;29;20008;-86
2022/08/11 13:05:11;;;;;;;;;;;34.90;39.50;;;;;;4925203;29;20413;-87
2022/08/11 13:07:39;;;;;;;;;;;34.80;38.70;;;;;;4925087;29;19910;-87
2022/08/11 13:10:06;;;;;;;;;;;35.00;39.60;;;;;;4924932;29;20003;-87
2022/08/11 13:12:46;;;;;;;;;;;35.10;39.00;;;;;;4917388;29;19914;-87
2022/08/11 13:15:15;;;;;;;;;;;35.30;39.10;;;;;;4924921;29;19914;-87
2022/08/11 13:17:41;;;;;;;;;;;35.30;39.10;;;;;;4924499;29;19911;-87
2022/08/11 13:20:08;;;;;;;;;;;35.10;39.00;;;;;;4923543;28;19968;-87
2022/08/11 13:22:35;;;;;;;;;;;35.40;39.20;;;;;;4966147;28;19914;-86
2022/08/11 13:25:02;;;;;;;;;;;35.40;39.50;;;;;;4947955;28;20363;-86
2022/08/11 13:27:28;;;;;;;;;;;35.30;39.40;;;;;;4966092;28;20288;-86
2022/08/11 13:31:09;;;;;;;;;;;35.10;39.10;;;;;;4948569;28;19940;-86
2022/08/11 13:32:40;;;;;;;;;;;34.80;39.10;;;;;;4965859;28;19913;-86
2022/08/11 13:35:06;;;;;;;;;;;34.60;38.40;;;;;;4966013;28;19910;-86
2022/08/11 13:37:33;;;;;;;;;;;34.80;38.90;;;;;;4965597;28;19916;-86
2022/08/11 13:40:00;;;;;;;;;;;34.80;38.90;;;;;;4965936;28;19925;-87
2022/08/11 13:42:26;;;;;;;;;;;34.80;39.00;;;;;;4965696;28;19910;-86
2022/08/11 13:44:52;;;;;;;;;;;34.90;38.40;;;;;;4965680;28;20007;-86
2022/08/11 13:47:20;;;;;;;;;;;34.80;38.40;;;;;;4965623;28;19997;-87
2022/08/11 13:49:46;;;;;;;;;;;34.60;38.10;;;;;;4965619;28;19910;-87
2022/08/11 13:52:13;;;;;;;;;;;34.70;38.40;;;;;;4965063;28;19957;-86
2022/08/11 13:54:39;;;;;;;;;;;34.70;39.20;;;;;;4965501;28;20302;-87
2022/08/11 13:57:07;;;;;;;;;;;34.80;39.10;;;;;;4965793;28;19918;-86
2022/08/11 13:59:33;;;;;;;;;;;35.30;39.40;;;;;;4965382;28;19914;-86
2022/08/11 14:02:03;;;;;;;;;;;34.90;39.10;;;;;;4965721;28;20421;-86
2022/08/11 14:04:28;;;;;;;;;;;34.80;40.30;;;;;;4965406;28;19979;-86
2022/08/11 14:06:58;;;;;;;;;;;34.80;39.90;;;;;;4965039;28;20502;-87
2022/08/11 14:09:25;;;;;;;;;;;34.60;39.20;;;;;;4965435;28;19917;-87
2022/08/11 14:14:36;;;;;;;;;;;34.80;41.10;;;;;;4965927;28;19960;-86
2022/08/11 14:17:07;;;;;;;;;;;34.60;39.60;;;;;;4965598;28;19910;-87
2022/08/11 14:19:39;;;;;;;;;;;34.70;39.80;;;;;;4965298;28;19934;-87
2022/08/11 14:22:05;;;;;;;;;;;34.60;40.20;;;;;;4952227;28;19910;-86
2022/08/11 14:24:32;;;;;;;;;;;35.00;40.40;;;;;;4965593;28;19914;-87
2022/08/11 14:26:59;;;;;;;;;;;34.80;40.70;;;;;;4965288;28;20347;-86
2022/08/11 14:29:26;;;;;;;;;;;34.60;39.90;;;;;;4965433;28;19917;-86
2022/08/11 14:31:56;;;;;;;;;;;34.70;40.70;;;;;;4965164;28;20410;-86
2022/08/11 14:34:23;;;;;;;;;;;34.60;41.30;;;;;;4965002;28;20509;-86
2022/08/11 14:36:51;;;;;;;;;;;34.70;41.10;;;;;;4964638;28;19937;-86
2022/08/11 14:39:18;;;;;;;;;;;34.70;40.60;;;;;;4964814;28;20037;-86
2022/08/11 14:47:18;;;;;;;;;;;34.50;41.00;;;;;;4965282;28;19924;-86
2022/08/11 14:49:43;;;;;;;;;;;34.70;40.70;;;;;;4964760;28;19914;-86
2022/08/11 14:52:14;;;;;;;;;;;34.50;40.10;;;;;;4965111;28;20661;-86
2022/08/11 14:57:29;;;;;;;;;;;34.20;40.40;;;;;;4965003;28;20331;-86
2022/08/11 14:59:57;;;;;;;;;;;34.60;41.00;;;;;;4965261;28;19918;-87
2022/08/11 15:05:07;;;;;;;;;;;34.70;40.90;;;;;;4952723;28;19917;-86
2022/08/11 15:07:33;;;;;;;;;;;34.80;40.40;;;;;;4964878;28;20319;-86
2022/08/11 15:10:00;;;;;;;;;;;34.70;41.20;;;;;;4965252;28;19906;-87
2022/08/11 15:12:26;;;;;;;;;;;34.30;40.80;;;;;;4965034;28;19969;-87
2022/08/11 15:17:37;;;;;;;;;;;34.60;41.00;;;;;;4964574;28;20493;-86
2022/08/11 15:25:35;;;;;;;;;;;34.10;41.70;;;;;;4965278;28;20449;-86
2022/08/11 15:39:07;;;;;;;;;;;34.20;40.00;;;;;;4965047;28;20327;-86
2022/08/11 15:47:43;;;;;;;;;;;33.90;40.20;;;;;;4968218;28;19921;-86
2022/08/11 15:50:17;;;;;;;;;;;34.00;40.90;;;;;;4967946;28;19961;-86
2022/08/11 15:52:46;;;;;;;;;;;33.90;41.60;;;;;;4967417;28;19916;-86
2022/08/11 15:55:11;;;;;;;;;;;34.10;39.90;;;;;;4968082;28;20477;-86
2022/08/11 16:06:12;;;;;;;;;;;33.90;40.60;;;;;;4888419;29;19911;-86
2022/08/11 16:08:39;;;;;;;;;;;33.80;41.10;;;;;;4888509;29;19911;-86
2022/08/11 16:11:05;;;;;;;;;;;33.80;40.90;;;;;;4888716;29;19911;-87
2022/08/11 16:16:13;;;;;;;;;;;33.70;41.70;;;;;;4888979;29;19928;-86
2022/08/11 16:18:45;;;;;;;;;;;34.00;40.90;;;;;;4888398;29;20010;-86
2022/08/11 16:21:22;;;;;;;;;;;33.90;41.10;;;;;;4888931;29;19931;-86
2022/08/11 16:23:49;;;;;;;;;;;33.80;40.70;;;;;;4888484;29;20006;-86
2022/08/11 16:26:16;;;;;;;;;;;33.80;41.20;;;;;;4888789;29;19911;-86
2022/08/11 16:28:43;;;;;;;;;;;33.80;41.20;;;;;;4888556;29;19930;-86
2022/08/11 16:31:10;;;;;;;;;;;33.90;41.20;;;;;;4888211;29;19911;-86
2022/08/11 16:33:40;;;;;;;;;;;34.30;41.20;;;;;;4887994;29;20708;-86
2022/08/11 16:38:52;;;;;;;;;;;33.70;42.10;;;;;;4967399;28;19929;-87
2022/08/11 16:46:58;;;;;;;;;;;33.80;42.20;;;;;;4950073;28;20036;-87
2022/08/11 16:46:59;;;;;;;;;;;33.90;41.90;;;;;;4966793;28;20401;-86
2022/08/11 16:49:32;;;;;;;;;;;33.70;41.90;;;;;;4967256;28;20764;-86
2022/08/11 16:52:02;;;;;;;;;;;33.60;42.40;;;;;;4967248;28;19910;-86
2022/08/11 16:54:32;;;;;;;;;;;33.50;42.00;;;;;;4965952;28;19921;-86
2022/08/11 16:59:12;;;;;;;;;;;33.40;42.20;;;;;;4949435;28;20021;-86
2022/08/11 16:59:44;;;;;;;;;;;33.30;41.80;;;;;;4966909;28;19925;-86
2022/08/11 17:13:07;;;;;;;;;;;33.20;42.20;;;;;;4966420;28;19910;-86
2022/08/11 17:13:46;;;;;;;;;;;33.60;40.00;;;;;;4971204;28;19921;-86
2022/08/11 17:16:13;;;;;;;;;;;33.40;40.00;;;;;;4972123;28;19913;-86
2022/08/11 17:18:43;;;;;;;;;;;33.20;40.70;;;;;;4966480;28;19924;-86
2022/08/11 17:21:17;;;;;;;;;;;33.10;41.00;;;;;;4966546;28;20738;-86
2022/08/11 17:23:45;;;;;;;;;;;33.20;40.80;;;;;;4952894;28;20402;-85
2022/08/11 17:26:19;;;;;;;;;;;33.00;41.00;;;;;;4966811;28;19909;-86
2022/08/11 17:28:50;;;;;;;;;;;33.00;41.20;;;;;;4980389;28;19910;-85
2022/08/11 17:36:50;;;;;;;;;;;33.20;40.90;;;;;;4966764;28;20484;-86
2022/08/11 17:39:15;;;;;;;;;;;33.10;40.90;;;;;;4966419;28;20395;-86
2022/08/11 17:49:56;;;;;;;;;;;32.70;41.40;;;;;;4966591;28;19968;-86
2022/08/11 18:00:36;;;;;;;;;;;32.50;41.50;;;;;;4965669;28;19924;-86
2022/08/11 18:05:48;;;;;;;;;;;32.40;41.60;;;;;;4965564;28;20390;-86
